Punta Gorda, FL (33955)

1:44 PM EDT on September 04, 2015 (GMT -0400)
Burnt Store Village | | Change Station
CLOSE
Current Station
Personal Weather Station
Location: Punta Gorda, FL
Elevation: 13 ft
Nearby Weather Stations

Elev 13 ft 26.79 °N, 82.03 °W | Updated 11 minutes ago

Partly Cloudy
Partly Cloudy
87.8 °F
Feels Like 101 °F
N
5.8
Wind Variable Wind from West

Today
High -- | Low -- °F
--% Chance of Precip.
Yesterday
High -- | Low -- °F
Precip. -- in
7:08 AM 7:45 PM
Waning Gibbous, 57% visible
Pressure 30.01 in
Visibility 10.0 miles
Clouds Scattered Clouds 4300 ft
Mostly Cloudy 9000 ft
Heat Index 101 °F
Dew Point 78 °F
Humidity 73%
Rainfall 0.00 in
Snow Depth Not available.
UV 8 out of 12
Pollen 4.30 out of 12
Air Quality Not available.
Flu Activity Not available.
SPECI KPGD 041736Z 29014KT 10SM TS SCT043 BKN090 30/24 A3001 RMK AO2 LTG DSNT SW AND W TSB30 T03000239
Pressure 30.01 in
Visibility 10.0 miles
Clouds Scattered Clouds 4300 ft
Mostly Cloudy 9000 ft
Heat Index 101 °F
Dew Point 78 °F
Humidity 73%
Rainfall 0.00 in
Snow Depth Not available.
UV 8 out of 12
Pollen 4.30 out of 12
Air Quality Not available.
Flu Activity Not available.
SPECI KPGD 041736Z 29014KT 10SM TS SCT043 BKN090 30/24 A3001 RMK AO2 LTG DSNT SW AND W TSB30 T03000239

10-Day Weather Forecast

×

Almanac

Astronomy

Sep. 04, 2015 Rise Set
Actual Time
Civil Twilight
Nautical Twilight
Astronomical Twilight
Moon
Length of Visible Light
Length of Day
Tomorrow will be .
, % of the Moon is Illuminated

Today's Extremes

State Highs State Lows

Community

WunderPhotos

Upload Photos

1,852,250 photos uploaded!

WunderBlogs® & News

Nearby

Air Quality

  Air Quality AQ Index Pollutant
Not available.

Snow Depth

Station Depth Elevation

Earthquake Activity

City Distance Mag. Time & Date
Minimum magnitude displayed is 2.5.

Coastal Water Temperatures

Place Temperature

Stations

Nearby Weather Stations

Station Location Temp. Windchill Dew Point Humidity Wind Precip. Elev Updated Type